sensor_id;sensor_type;location;lat;lon;timestamp;pressure;altitude;pressure_sealevel;temperature;humidity
52653;BME280;39353;42.864;12.014;2023-02-02T00:02:02;98063.90;;;20.38;48.22
52653;BME280;39353;42.864;12.014;2023-02-02T00:04:32;98056.84;;;20.36;48.19
52653;BME280;39353;42.864;12.014;2023-02-02T00:07:01;98055.50;;;20.33;48.28
52653;BME280;39353;42.864;12.014;2023-02-02T00:09:43;98055.79;;;20.31;48.33
52653;BME280;39353;42.864;12.014;2023-02-02T00:12:24;98056.38;;;20.29;48.40
52653;BME280;39353;42.864;12.014;2023-02-02T00:14:51;98052.92;;;20.27;48.32
52653;BME280;39353;42.864;12.014;2023-02-02T00:17:34;98052.75;;;20.25;48.40
52653;BME280;39353;42.864;12.014;2023-02-02T00:20:02;98059.69;;;20.22;48.48
52653;BME280;39353;42.864;12.014;2023-02-02T00:22:29;98061.66;;;20.22;48.30
52653;BME280;39353;42.864;12.014;2023-02-02T00:24:56;98062.41;;;20.20;48.43
52653;BME280;39353;42.864;12.014;2023-02-02T00:27:23;98064.30;;;20.18;48.45
52653;BME280;39353;42.864;12.014;2023-02-02T00:30:06;98064.58;;;20.16;48.48
52653;BME280;39353;42.864;12.014;2023-02-02T00:32:48;98058.09;;;20.15;48.39
52653;BME280;39353;42.864;12.014;2023-02-02T00:35:32;98058.54;;;20.13;48.44
52653;BME280;39353;42.864;12.014;2023-02-02T00:37:59;98054.85;;;20.11;48.38
52653;BME280;39353;42.864;12.014;2023-02-02T00:40:26;98057.54;;;20.09;48.50
52653;BME280;39353;42.864;12.014;2023-02-02T00:43:09;98055.91;;;20.06;48.57
52653;BME280;39353;42.864;12.014;2023-02-02T00:45:50;98056.30;;;20.04;48.61
52653;BME280;39353;42.864;12.014;2023-02-02T00:48:18;98049.02;;;20.03;48.70
52653;BME280;39353;42.864;12.014;2023-02-02T00:50:45;98046.61;;;20.02;48.68
52653;BME280;39353;42.864;12.014;2023-02-02T00:53:26;98042.17;;;20.00;48.69
52653;BME280;39353;42.864;12.014;2023-02-02T00:56:08;98043.20;;;19.98;48.68
52653;BME280;39353;42.864;12.014;2023-02-02T00:58:50;98043.65;;;19.96;48.69
52653;BME280;39353;42.864;12.014;2023-02-02T01:01:31;98044.88;;;19.95;48.70
52653;BME280;39353;42.864;12.014;2023-02-02T01:04:13;98044.69;;;19.94;48.71
52653;BME280;39353;42.864;12.014;2023-02-02T01:06:40;98049.17;;;19.93;48.75
52653;BME280;39353;42.864;12.014;2023-02-02T01:09:23;98051.55;;;19.91;48.69
52653;BME280;39353;42.864;12.014;2023-02-02T01:11:50;98050.59;;;19.90;48.59
52653;BME280;39353;42.864;12.014;2023-02-02T01:14:18;98043.55;;;19.89;48.63
52653;BME280;39353;42.864;12.014;2023-02-02T01:16:59;98045.54;;;19.87;48.79
52653;BME280;39353;42.864;12.014;2023-02-02T01:19:40;98044.56;;;19.85;48.82
52653;BME280;39353;42.864;12.014;2023-02-02T01:22:08;98040.27;;;19.82;48.91
52653;BME280;39353;42.864;12.014;2023-02-02T01:24:49;98038.39;;;19.81;48.92
52653;BME280;39353;42.864;12.014;2023-02-02T01:27:17;98038.43;;;19.81;48.87
52653;BME280;39353;42.864;12.014;2023-02-02T01:29:58;98042.29;;;19.79;49.00
52653;BME280;39353;42.864;12.014;2023-02-02T01:32:26;98046.38;;;19.78;49.02
52653;BME280;39353;42.864;12.014;2023-02-02T01:35:06;98046.37;;;19.75;49.03
52653;BME280;39353;42.864;12.014;2023-02-02T01:37:48;98036.48;;;19.74;49.04
52653;BME280;39353;42.864;12.014;2023-02-02T01:40:16;98027.42;;;19.73;49.02
52653;BME280;39353;42.864;12.014;2023-02-02T01:42:57;98032.34;;;19.72;49.10
52653;BME280;39353;42.864;12.014;2023-02-02T01:45:28;98036.36;;;19.72;49.10
52653;BME280;39353;42.864;12.014;2023-02-02T01:48:09;98042.44;;;19.71;49.05
52653;BME280;39353;42.864;12.014;2023-02-02T01:50:55;98045.48;;;19.70;49.04
52653;BME280;39353;42.864;12.014;2023-02-02T01:53:23;98043.64;;;19.69;49.15
52653;BME280;39353;42.864;12.014;2023-02-02T01:55:52;98043.39;;;19.68;49.13
52653;BME280;39353;42.864;12.014;2023-02-02T01:58:26;98040.08;;;19.67;49.09
52653;BME280;39353;42.864;12.014;2023-02-02T02:01:10;98039.91;;;19.67;49.11
52653;BME280;39353;42.864;12.014;2023-02-02T02:03:52;98040.82;;;19.65;49.04
52653;BME280;39353;42.864;12.014;2023-02-02T02:06:20;98046.10;;;19.64;49.16
52653;BME280;39353;42.864;12.014;2023-02-02T02:09:00;98043.45;;;19.63;49.06
52653;BME280;39353;42.864;12.014;2023-02-02T02:11:31;98044.61;;;19.60;49.23
52653;BME280;39353;42.864;12.014;2023-02-02T02:14:15;98045.66;;;19.59;49.19
52653;BME280;39353;42.864;12.014;2023-02-02T02:18:36;98042.17;;;19.58;49.24
52653;BME280;39353;42.864;12.014;2023-02-02T02:31:11;98031.95;;;19.52;49.33
52653;BME280;39353;42.864;12.014;2023-02-02T02:33:59;98027.05;;;19.51;49.28
52653;BME280;39353;42.864;12.014;2023-02-02T02:37:02;98021.71;;;19.51;49.29
52653;BME280;39353;42.864;12.014;2023-02-02T02:39:53;98017.78;;;19.48;49.32
52653;BME280;39353;42.864;12.014;2023-02-02T02:42:25;98017.40;;;19.48;49.37
52653;BME280;39353;42.864;12.014;2023-02-02T02:45:13;98022.42;;;19.48;49.30
52653;BME280;39353;42.864;12.014;2023-02-02T02:47:55;98026.20;;;19.45;49.42
52653;BME280;39353;42.864;12.014;2023-02-02T02:50:23;98023.73;;;19.45;49.35
52653;BME280;39353;42.864;12.014;2023-02-02T02:53:03;98021.88;;;19.44;49.41
52653;BME280;39353;42.864;12.014;2023-02-02T02:55:41;98023.09;;;19.43;49.28
52653;BME280;39353;42.864;12.014;2023-02-02T02:58:49;98021.90;;;19.41;49.26
52653;BME280;39353;42.864;12.014;2023-02-02T03:01:36;98019.95;;;19.41;49.34
52653;BME280;39353;42.864;12.014;2023-02-02T03:07:25;98009.59;;;19.39;49.45
52653;BME280;39353;42.864;12.014;2023-02-02T03:10:12;98007.31;;;19.37;49.41
52653;BME280;39353;42.864;12.014;2023-02-02T03:12:47;98008.77;;;19.36;49.44
52653;BME280;39353;42.864;12.014;2023-02-02T03:15:16;98007.27;;;19.35;49.46
52653;BME280;39353;42.864;12.014;2023-02-02T03:17:58;98008.61;;;19.33;49.60
52653;BME280;39353;42.864;12.014;2023-02-02T03:20:42;98005.84;;;19.33;49.57
52653;BME280;39353;42.864;12.014;2023-02-02T03:23:10;98006.21;;;19.33;49.58
52653;BME280;39353;42.864;12.014;2023-02-02T03:25:54;98004.96;;;19.32;49.61
52653;BME280;39353;42.864;12.014;2023-02-02T03:28:35;98007.21;;;19.31;49.53
52653;BME280;39353;42.864;12.014;2023-02-02T03:31:18;98010.89;;;19.29;49.51
52653;BME280;39353;42.864;12.014;2023-02-02T03:33:59;98005.08;;;19.29;49.50
52653;BME280;39353;42.864;12.014;2023-02-02T03:36:27;98001.48;;;19.29;49.51
52653;BME280;39353;42.864;12.014;2023-02-02T03:39:09;97997.41;;;19.28;49.54
52653;BME280;39353;42.864;12.014;2023-02-02T03:41:50;98001.51;;;19.28;49.67
52653;BME280;39353;42.864;12.014;2023-02-02T03:44:31;98004.77;;;19.26;49.57
52653;BME280;39353;42.864;12.014;2023-02-02T03:46:58;98003.93;;;19.26;49.58
52653;BME280;39353;42.864;12.014;2023-02-02T03:49:39;98007.56;;;19.24;49.59
52653;BME280;39353;42.864;12.014;2023-02-02T03:52:20;98009.94;;;19.23;49.61
52653;BME280;39353;42.864;12.014;2023-02-02T03:54:47;98000.89;;;19.23;49.55
52653;BME280;39353;42.864;12.014;2023-02-02T03:57:28;97997.38;;;19.22;49.58
52653;BME280;39353;42.864;12.014;2023-02-02T03:59:55;97997.48;;;19.21;49.56
52653;BME280;39353;42.864;12.014;2023-02-02T04:02:22;98004.67;;;19.21;49.57
52653;BME280;39353;42.864;12.014;2023-02-02T04:05:04;98008.77;;;19.19;49.63
52653;BME280;39353;42.864;12.014;2023-02-02T04:10:44;97999.43;;;19.20;49.69
52653;BME280;39353;42.864;12.014;2023-02-02T04:13:11;97998.50;;;19.17;49.54
52653;BME280;39353;42.864;12.014;2023-02-02T04:15:59;97994.56;;;19.15;49.78
52653;BME280;39353;42.864;12.014;2023-02-02T04:18:40;98002.63;;;19.15;49.63
52653;BME280;39353;42.864;12.014;2023-02-02T04:21:08;98016.36;;;19.15;49.68
52653;BME280;39353;42.864;12.014;2023-02-02T04:23:49;98018.21;;;19.15;49.68
52653;BME280;39353;42.864;12.014;2023-02-02T04:26:16;98018.03;;;19.13;49.73
52653;BME280;39353;42.864;12.014;2023-02-02T04:29:22;98025.02;;;19.13;49.83
52653;BME280;39353;42.864;12.014;2023-02-02T04:32:04;98023.96;;;19.11;49.73
52653;BME280;39353;42.864;12.014;2023-02-02T04:34:45;98021.31;;;19.11;49.82
52653;BME280;39353;42.864;12.014;2023-02-02T04:37:30;98013.15;;;19.12;49.83
52653;BME280;39353;42.864;12.014;2023-02-02T04:40:13;98010.21;;;19.08;49.75
52653;BME280;39353;42.864;12.014;2023-02-02T04:42:56;98016.91;;;19.07;49.82
52653;BME280;39353;42.864;12.014;2023-02-02T04:45:38;98012.50;;;19.06;49.86
52653;BME280;39353;42.864;12.014;2023-02-02T04:48:05;98013.64;;;19.06;49.80
52653;BME280;39353;42.864;12.014;2023-02-02T04:50:45;98013.34;;;19.05;49.88
52653;BME280;39353;42.864;12.014;2023-02-02T04:53:12;98017.23;;;19.04;49.87
52653;BME280;39353;42.864;12.014;2023-02-02T04:55:54;98020.45;;;19.03;49.90
52653;BME280;39353;42.864;12.014;2023-02-02T04:58:34;98019.52;;;19.02;49.90
52653;BME280;39353;42.864;12.014;2023-02-02T05:01:17;98022.70;;;19.01;49.94
52653;BME280;39353;42.864;12.014;2023-02-02T05:03:46;98024.55;;;19.00;49.88
52653;BME280;39353;42.864;12.014;2023-02-02T05:06:28;98020.26;;;18.99;49.95
52653;BME280;39353;42.864;12.014;2023-02-02T05:08:55;98021.84;;;18.98;49.89
52653;BME280;39353;42.864;12.014;2023-02-02T05:11:36;98021.65;;;18.97;49.96
52653;BME280;39353;42.864;12.014;2023-02-02T05:14:04;98024.49;;;18.96;49.99
52653;BME280;39353;42.864;12.014;2023-02-02T05:16:45;98033.44;;;18.95;50.02
52653;BME280;39353;42.864;12.014;2023-02-02T05:19:12;98044.74;;;18.95;50.03
52653;BME280;39353;42.864;12.014;2023-02-02T05:21:43;98040.98;;;18.94;49.90
52653;BME280;39353;42.864;12.014;2023-02-02T05:24:24;98045.41;;;18.94;49.93
52653;BME280;39353;42.864;12.014;2023-02-02T05:26:53;98052.41;;;18.93;49.96
52653;BME280;39353;42.864;12.014;2023-02-02T05:29:39;98050.73;;;18.92;49.97
52653;BME280;39353;42.864;12.014;2023-02-02T05:32:20;98054.23;;;18.91;49.94
52653;BME280;39353;42.864;12.014;2023-02-02T05:35:01;98053.89;;;18.90;50.03
52653;BME280;39353;42.864;12.014;2023-02-02T05:37:43;98057.42;;;18.91;49.90
52653;BME280;39353;42.864;12.014;2023-02-02T05:40:13;98064.86;;;18.89;49.95
52653;BME280;39353;42.864;12.014;2023-02-02T05:42:40;98067.79;;;18.89;49.97
52653;BME280;39353;42.864;12.014;2023-02-02T05:45:22;98072.13;;;18.89;49.99
52653;BME280;39353;42.864;12.014;2023-02-02T05:47:52;98069.40;;;18.87;49.99
52653;BME280;39353;42.864;12.014;2023-02-02T05:50:19;98063.42;;;18.87;49.98
52653;BME280;39353;42.864;12.014;2023-02-02T05:53:12;98062.07;;;18.85;49.89
52653;BME280;39353;42.864;12.014;2023-02-02T05:55:40;98064.70;;;18.86;49.95
52653;BME280;39353;42.864;12.014;2023-02-02T05:58:07;98070.02;;;18.85;50.00
52653;BME280;39353;42.864;12.014;2023-02-02T06:00:48;98076.02;;;18.84;49.96
52653;BME280;39353;42.864;12.014;2023-02-02T06:03:29;98080.65;;;18.83;49.99
52653;BME280;39353;42.864;12.014;2023-02-02T06:06:10;98078.73;;;18.83;50.07
52653;BME280;39353;42.864;12.014;2023-02-02T06:08:52;98076.73;;;18.81;50.11
52653;BME280;39353;42.864;12.014;2023-02-02T06:11:33;98074.09;;;18.81;50.11
52653;BME280;39353;42.864;12.014;2023-02-02T06:14:03;98080.02;;;18.81;50.11
52653;BME280;39353;42.864;12.014;2023-02-02T06:17:17;98082.61;;;18.81;50.04
52653;BME280;39353;42.864;12.014;2023-02-02T06:19:44;98078.42;;;18.81;50.05
52653;BME280;39353;42.864;12.014;2023-02-02T06:22:11;98070.35;;;18.80;50.07
52653;BME280;39353;42.864;12.014;2023-02-02T06:24:38;98070.28;;;18.80;50.06
52653;BME280;39353;42.864;12.014;2023-02-02T06:27:05;98071.02;;;18.78;49.96
52653;BME280;39353;42.864;12.014;2023-02-02T06:29:47;98074.47;;;18.78;50.10
52653;BME280;39353;42.864;12.014;2023-02-02T06:32:14;98085.61;;;18.79;50.13
52653;BME280;39353;42.864;12.014;2023-02-02T06:34:41;98089.33;;;18.77;50.09
52653;BME280;39353;42.864;12.014;2023-02-02T06:37:08;98082.58;;;18.75;50.09
52653;BME280;39353;42.864;12.014;2023-02-02T06:39:35;98075.71;;;18.75;50.09
52653;BME280;39353;42.864;12.014;2023-02-02T06:42:02;98078.01;;;18.74;50.05
52653;BME280;39353;42.864;12.014;2023-02-02T06:44:43;98077.71;;;18.73;50.05
52653;BME280;39353;42.864;12.014;2023-02-02T06:47:34;98082.89;;;18.73;50.03
52653;BME280;39353;42.864;12.014;2023-02-02T06:50:16;98089.52;;;18.72;50.09
52653;BME280;39353;42.864;12.014;2023-02-02T06:52:49;98094.87;;;18.71;50.13
52653;BME280;39353;42.864;12.014;2023-02-02T06:55:32;98100.01;;;18.71;50.09
52653;BME280;39353;42.864;12.014;2023-02-02T06:58:13;98093.36;;;18.70;50.05
52653;BME280;39353;42.864;12.014;2023-02-02T07:00:41;98087.83;;;18.70;50.12
52653;BME280;39353;42.864;12.014;2023-02-02T07:03:08;98096.23;;;18.69;50.14
52653;BME280;39353;42.864;12.014;2023-02-02T07:05:39;98099.23;;;18.68;50.16
52653;BME280;39353;42.864;12.014;2023-02-02T07:08:05;98105.30;;;18.66;50.22
52653;BME280;39353;42.864;12.014;2023-02-02T07:10:46;98106.56;;;18.66;50.28
52653;BME280;39353;42.864;12.014;2023-02-02T07:13:13;98101.82;;;18.65;50.25
52653;BME280;39353;42.864;12.014;2023-02-02T07:15:54;98104.49;;;18.64;50.31
52653;BME280;39353;42.864;12.014;2023-02-02T07:18:38;98107.88;;;18.63;50.35
52653;BME280;39353;42.864;12.014;2023-02-02T07:21:23;98104.36;;;18.64;50.35
52653;BME280;39353;42.864;12.014;2023-02-02T07:23:51;98108.34;;;18.64;50.36
52653;BME280;39353;42.864;12.014;2023-02-02T07:26:18;98105.25;;;18.64;50.47
52653;BME280;39353;42.864;12.014;2023-02-02T07:28:59;98111.95;;;18.66;50.18
52653;BME280;39353;42.864;12.014;2023-02-02T07:31:40;98112.17;;;18.67;50.30
52653;BME280;39353;42.864;12.014;2023-02-02T07:34:21;98110.96;;;18.67;50.39
52653;BME280;39353;42.864;12.014;2023-02-02T07:36:49;98111.96;;;18.67;50.24
52653;BME280;39353;42.864;12.014;2023-02-02T07:39:30;98110.58;;;18.66;50.38
52653;BME280;39353;42.864;12.014;2023-02-02T07:41:57;98108.94;;;18.66;50.40
52653;BME280;39353;42.864;12.014;2023-02-02T07:44:45;98107.05;;;18.65;50.49
52653;BME280;39353;42.864;12.014;2023-02-02T07:47:12;98107.19;;;18.66;50.49
52653;BME280;39353;42.864;12.014;2023-02-02T07:49:53;98108.65;;;18.61;49.36
52653;BME280;39353;42.864;12.014;2023-02-02T07:52:34;98115.38;;;18.61;49.81
52653;BME280;39353;42.864;12.014;2023-02-02T07:58:46;98116.63;;;18.66;50.06
52653;BME280;39353;42.864;12.014;2023-02-02T08:01:15;98118.56;;;18.67;50.06
52653;BME280;39353;42.864;12.014;2023-02-02T08:03:43;98124.11;;;18.68;50.06
52653;BME280;39353;42.864;12.014;2023-02-02T08:06:18;98124.30;;;18.69;50.06
52653;BME280;39353;42.864;12.014;2023-02-02T08:08:49;98123.80;;;18.69;49.68
52653;BME280;39353;42.864;12.014;2023-02-02T08:11:30;98123.39;;;18.71;50.10
52653;BME280;39353;42.864;12.014;2023-02-02T08:14:12;98124.94;;;18.74;50.19
52653;BME280;39353;42.864;12.014;2023-02-02T08:16:39;98126.05;;;18.77;49.87
52653;BME280;39353;42.864;12.014;2023-02-02T08:19:08;98130.45;;;18.78;49.23
52653;BME280;39353;42.864;12.014;2023-02-02T08:21:38;98128.34;;;18.77;48.64
52653;BME280;39353;42.864;12.014;2023-02-02T08:24:19;98124.33;;;18.76;48.01
52653;BME280;39353;42.864;12.014;2023-02-02T08:26:46;98130.98;;;18.77;47.75
52653;BME280;39353;42.864;12.014;2023-02-02T08:29:27;98139.59;;;18.77;48.02
52653;BME280;39353;42.864;12.014;2023-02-02T08:32:08;98147.86;;;18.76;47.96
52653;BME280;39353;42.864;12.014;2023-02-02T08:34:36;98149.63;;;18.75;47.78
52653;BME280;39353;42.864;12.014;2023-02-02T08:37:05;98151.45;;;18.74;47.57
52653;BME280;39353;42.864;12.014;2023-02-02T08:39:33;98151.93;;;18.73;47.24
52653;BME280;39353;42.864;12.014;2023-02-02T08:42:00;98150.44;;;18.69;46.96
52653;BME280;39353;42.864;12.014;2023-02-02T08:44:41;98150.72;;;18.67;47.10
52653;BME280;39353;42.864;12.014;2023-02-02T08:47:22;98151.09;;;18.66;47.12
52653;BME280;39353;42.864;12.014;2023-02-02T08:49:50;98144.95;;;18.66;47.38
52653;BME280;39353;42.864;12.014;2023-02-02T08:52:31;98144.55;;;18.68;47.80
52653;BME280;39353;42.864;12.014;2023-02-02T08:54:58;98137.18;;;18.69;48.02
52653;BME280;39353;42.864;12.014;2023-02-02T08:57:26;98137.66;;;18.71;48.14
52653;BME280;39353;42.864;12.014;2023-02-02T08:59:54;98135.80;;;18.74;48.21
52653;BME280;39353;42.864;12.014;2023-02-02T09:02:36;98144.02;;;18.77;48.30
52653;BME280;39353;42.864;12.014;2023-02-02T09:05:20;98155.24;;;18.78;48.30
52653;BME280;39353;42.864;12.014;2023-02-02T09:07:47;98162.63;;;18.80;48.46
52653;BME280;39353;42.864;12.014;2023-02-02T09:10:15;98167.08;;;18.83;49.53
52653;BME280;39353;42.864;12.014;2023-02-02T09:12:43;98172.16;;;18.86;49.82
52653;BME280;39353;42.864;12.014;2023-02-02T09:15:24;98172.16;;;18.89;49.89
52653;BME280;39353;42.864;12.014;2023-02-02T09:18:05;98171.87;;;18.90;49.17
52653;BME280;39353;42.864;12.014;2023-02-02T09:20:45;98173.59;;;18.81;47.88
52653;BME280;39353;42.864;12.014;2023-02-02T09:23:12;98177.33;;;18.78;48.56
52653;BME280;39353;42.864;12.014;2023-02-02T09:25:40;98181.95;;;18.76;48.78
52653;BME280;39353;42.864;12.014;2023-02-02T09:28:22;98184.74;;;18.74;48.67
52653;BME280;39353;42.864;12.014;2023-02-02T09:31:03;98182.46;;;18.74;48.74
52653;BME280;39353;42.864;12.014;2023-02-02T09:37:14;98190.41;;;18.72;48.63
52653;BME280;39353;42.864;12.014;2023-02-02T09:39:55;98189.77;;;18.72;48.56
52653;BME280;39353;42.864;12.014;2023-02-02T09:42:51;98190.10;;;18.70;47.22
52653;BME280;39353;42.864;12.014;2023-02-02T09:45:58;98190.39;;;18.64;45.31
52653;BME280;39353;42.864;12.014;2023-02-02T09:51:45;98196.63;;;18.57;45.34
52653;BME280;39353;42.864;12.014;2023-02-02T09:57:49;98204.50;;;18.62;46.36
52653;BME280;39353;42.864;12.014;2023-02-02T10:00:28;98202.66;;;18.63;46.53
52653;BME280;39353;42.864;12.014;2023-02-02T10:03:27;98208.73;;;18.64;46.58
52653;BME280;39353;42.864;12.014;2023-02-02T10:06:42;98212.57;;;18.66;46.97
52653;BME280;39353;42.864;12.014;2023-02-02T10:12:05;98209.83;;;18.74;47.43
52653;BME280;39353;42.864;12.014;2023-02-02T10:23:40;98209.73;;;18.73;47.35
52653;BME280;39353;42.864;12.014;2023-02-02T10:26:59;98204.62;;;18.72;47.51
52653;BME280;39353;42.864;12.014;2023-02-02T10:32:31;98193.85;;;18.69;47.63
52653;BME280;39353;42.864;12.014;2023-02-02T10:44:32;98192.65;;;18.70;48.01
52653;BME280;39353;42.864;12.014;2023-02-02T10:47:08;98186.68;;;18.72;48.09
52653;BME280;39353;42.864;12.014;2023-02-02T10:53:00;98179.98;;;18.73;48.57
52653;BME280;39353;42.864;12.014;2023-02-02T10:56:05;98177.91;;;18.72;48.94
52653;BME280;39353;42.864;12.014;2023-02-02T10:58:54;98171.65;;;18.75;49.89
52653;BME280;39353;42.864;12.014;2023-02-02T11:01:24;98169.81;;;18.75;50.02
52653;BME280;39353;42.864;12.014;2023-02-02T11:04:11;98163.63;;;18.75;50.53
52653;BME280;39353;42.864;12.014;2023-02-02T11:07:11;98156.48;;;18.76;50.92
52653;BME280;39353;42.864;12.014;2023-02-02T11:10:00;98152.81;;;18.77;51.16
52653;BME280;39353;42.864;12.014;2023-02-02T11:12:44;98150.77;;;18.78;51.57
52653;BME280;39353;42.864;12.014;2023-02-02T11:15:32;98150.02;;;18.78;51.87
52653;BME280;39353;42.864;12.014;2023-02-02T11:18:27;98146.66;;;18.77;52.39
52653;BME280;39353;42.864;12.014;2023-02-02T11:21:35;98142.84;;;18.75;51.34
52653;BME280;39353;42.864;12.014;2023-02-02T11:24:30;98142.17;;;18.64;49.33
52653;BME280;39353;42.864;12.014;2023-02-02T11:27:26;98142.34;;;18.60;50.80
52653;BME280;39353;42.864;12.014;2023-02-02T11:30:23;98141.71;;;18.61;51.00
52653;BME280;39353;42.864;12.014;2023-02-02T11:32:53;98139.17;;;18.61;51.16
52653;BME280;39353;42.864;12.014;2023-02-02T11:35:35;98135.44;;;18.54;46.94
52653;BME280;39353;42.864;12.014;2023-02-02T11:38:18;98132.52;;;18.48;48.79
52653;BME280;39353;42.864;12.014;2023-02-02T11:43:31;98129.66;;;18.46;47.48
52653;BME280;39353;42.864;12.014;2023-02-02T11:46:00;98123.14;;;18.35;44.92
52653;BME280;39353;42.864;12.014;2023-02-02T11:48:38;98124.02;;;18.31;47.09
52653;BME280;39353;42.864;12.014;2023-02-02T11:51:28;98121.35;;;18.32;48.18
52653;BME280;39353;42.864;12.014;2023-02-02T11:54:26;98117.44;;;18.33;48.44
52653;BME280;39353;42.864;12.014;2023-02-02T11:57:18;98115.79;;;18.35;48.93
52653;BME280;39353;42.864;12.014;2023-02-02T12:00:05;98116.80;;;18.36;49.14
52653;BME280;39353;42.864;12.014;2023-02-02T12:02:35;98114.36;;;18.36;49.15
52653;BME280;39353;42.864;12.014;2023-02-02T12:07:48;98118.40;;;18.39;49.47
52653;BME280;39353;42.864;12.014;2023-02-02T12:10:19;98118.29;;;18.39;49.57
52653;BME280;39353;42.864;12.014;2023-02-02T12:25:02;98078.63;;;18.42;49.93
52653;BME280;39353;42.864;12.014;2023-02-02T12:30:34;98072.39;;;18.46;50.19
52653;BME280;39353;42.864;12.014;2023-02-02T12:33:42;98065.91;;;18.51;50.80
52653;BME280;39353;42.864;12.014;2023-02-02T12:39:31;98060.23;;;18.62;53.10
52653;BME280;39353;42.864;12.014;2023-02-02T13:09:48;98034.48;;;18.90;56.68
52653;BME280;39353;42.864;12.014;2023-02-02T13:12:44;98030.27;;;18.90;56.24
52653;BME280;39353;42.864;12.014;2023-02-02T13:15:41;98028.73;;;18.91;55.92
52653;BME280;39353;42.864;12.014;2023-02-02T13:18:36;98027.58;;;18.96;55.73
52653;BME280;39353;42.864;12.014;2023-02-02T13:21:22;98026.75;;;19.01;55.55
52653;BME280;39353;42.864;12.014;2023-02-02T13:23:55;98024.24;;;19.03;55.42
52653;BME280;39353;42.864;12.014;2023-02-02T13:26:28;98027.31;;;19.04;55.19
52653;BME280;39353;42.864;12.014;2023-02-02T13:32:31;98027.90;;;19.03;54.40
52653;BME280;39353;42.864;12.014;2023-02-02T13:38:22;98022.05;;;19.06;53.78
52653;BME280;39353;42.864;12.014;2023-02-02T13:40:54;98021.64;;;19.07;53.35
52653;BME280;39353;42.864;12.014;2023-02-02T13:55:31;98021.55;;;19.43;51.72
52653;BME280;39353;42.864;12.014;2023-02-02T13:58:24;98020.67;;;19.50;51.47
52653;BME280;39353;42.864;12.014;2023-02-02T14:01:13;98019.31;;;19.56;51.12
52653;BME280;39353;42.864;12.014;2023-02-02T14:03:44;98021.77;;;19.64;50.89
52653;BME280;39353;42.864;12.014;2023-02-02T14:09:37;98017.57;;;19.85;50.35
52653;BME280;39353;42.864;12.014;2023-02-02T14:12:29;98013.55;;;19.93;50.18
52653;BME280;39353;42.864;12.014;2023-02-02T14:15:11;98015.20;;;20.02;49.98
52653;BME280;39353;42.864;12.014;2023-02-02T14:17:54;98023.13;;;20.08;49.95
52653;BME280;39353;42.864;12.014;2023-02-02T14:23:48;98027.96;;;20.16;49.57
52653;BME280;39353;42.864;12.014;2023-02-02T14:26:48;98029.98;;;20.25;49.45
52653;BME280;39353;42.864;12.014;2023-02-02T14:34:43;98039.23;;;20.36;49.23
52653;BME280;39353;42.864;12.014;2023-02-02T14:44:25;98047.91;;;20.37;49.10
52653;BME280;39353;42.864;12.014;2023-02-02T14:47:45;98048.20;;;20.36;49.04
52653;BME280;39353;42.864;12.014;2023-02-02T14:53:04;98053.86;;;20.33;49.02
52653;BME280;39353;42.864;12.014;2023-02-02T15:01:34;98049.13;;;20.43;48.97
52653;BME280;39353;42.864;12.014;2023-02-02T15:07:37;98057.52;;;20.52;48.27
52653;BME280;39353;42.864;12.014;2023-02-02T15:11:00;98056.29;;;20.60;47.28
52653;BME280;39353;42.864;12.014;2023-02-02T15:13:44;98057.75;;;20.71;47.13
52653;BME280;39353;42.864;12.014;2023-02-02T15:16:25;98060.03;;;20.80;47.02
52653;BME280;39353;42.864;12.014;2023-02-02T15:19:17;98065.86;;;20.86;47.12
52653;BME280;39353;42.864;12.014;2023-02-02T15:21:50;98068.95;;;20.89;46.98
52653;BME280;39353;42.864;12.014;2023-02-02T15:24:24;98066.36;;;20.92;46.75
52653;BME280;39353;42.864;12.014;2023-02-02T15:26:57;98073.30;;;20.95;46.68
52653;BME280;39353;42.864;12.014;2023-02-02T15:29:44;98070.54;;;20.99;46.78
52653;BME280;39353;42.864;12.014;2023-02-02T15:32:27;98071.38;;;20.99;46.83
52653;BME280;39353;42.864;12.014;2023-02-02T15:35:22;98077.92;;;21.01;46.74
52653;BME280;39353;42.864;12.014;2023-02-02T15:37:59;98078.00;;;21.01;46.48
52653;BME280;39353;42.864;12.014;2023-02-02T15:40:29;98074.20;;;21.03;46.02
52653;BME280;39353;42.864;12.014;2023-02-02T15:43:14;98072.75;;;21.05;46.09
52653;BME280;39353;42.864;12.014;2023-02-02T15:45:52;98075.77;;;21.06;46.05
52653;BME280;39353;42.864;12.014;2023-02-02T15:48:34;98076.55;;;21.08;46.08
52653;BME280;39353;42.864;12.014;2023-02-02T15:51:16;98077.77;;;21.11;46.06
52653;BME280;39353;42.864;12.014;2023-02-02T15:53:57;98076.08;;;21.15;46.07
52653;BME280;39353;42.864;12.014;2023-02-02T15:56:38;98074.86;;;21.19;45.84
52653;BME280;39353;42.864;12.014;2023-02-02T15:59:24;98076.52;;;21.22;46.04
52653;BME280;39353;42.864;12.014;2023-02-02T16:02:17;98079.02;;;21.26;46.17
52653;BME280;39353;42.864;12.014;2023-02-02T16:04:47;98080.77;;;21.21;45.53
52653;BME280;39353;42.864;12.014;2023-02-02T16:10:46;98080.54;;;21.29;45.65
52653;BME280;39353;42.864;12.014;2023-02-02T16:13:30;98079.66;;;21.36;45.60
52653;BME280;39353;42.864;12.014;2023-02-02T16:16:25;98077.46;;;21.42;46.12
52653;BME280;39353;42.864;12.014;2023-02-02T16:19:22;98090.85;;;21.48;45.90
52653;BME280;39353;42.864;12.014;2023-02-02T16:22:09;98097.34;;;21.52;46.06
52653;BME280;39353;42.864;12.014;2023-02-02T16:24:46;98094.69;;;21.55;46.09
52653;BME280;39353;42.864;12.014;2023-02-02T16:27:18;98102.04;;;21.55;46.03
52653;BME280;39353;42.864;12.014;2023-02-02T16:30:08;98115.86;;;21.52;46.22
52653;BME280;39353;42.864;12.014;2023-02-02T16:32:55;98122.09;;;21.52;46.01
52653;BME280;39353;42.864;12.014;2023-02-02T16:35:30;98127.38;;;21.52;45.89